sensor_id;sensor_type;location;lat;lon;timestamp;P1;durP1;ratioP1;P2;durP2;ratioP2
38693;SDS011;24447;43.460;25.744;2022-09-03T00:02:20;5.88;;;2.40;;
38693;SDS011;24447;43.460;25.744;2022-09-03T00:08:02;6.88;;;2.17;;
38693;SDS011;24447;43.460;25.744;2022-09-03T00:13:26;8.15;;;1.92;;
38693;SDS011;24447;43.460;25.744;2022-09-03T00:15:56;3.88;;;1.65;;
38693;SDS011;24447;43.460;25.744;2022-09-03T00:18:24;3.78;;;1.80;;
38693;SDS011;24447;43.460;25.744;2022-09-03T00:20:57;2.20;;;1.77;;
38693;SDS011;24447;43.460;25.744;2022-09-03T00:23:32;2.38;;;1.50;;
38693;SDS011;24447;43.460;25.744;2022-09-03T00:28:44;7.18;;;2.13;;
38693;SDS011;24447;43.460;25.744;2022-09-03T00:31:47;6.30;;;2.03;;
38693;SDS011;24447;43.460;25.744;2022-09-03T00:34:33;3.90;;;1.90;;
38693;SDS011;24447;43.460;25.744;2022-09-03T00:37:03;3.13;;;1.60;;
38693;SDS011;24447;43.460;25.744;2022-09-03T00:39:29;2.63;;;1.55;;
38693;SDS011;24447;43.460;25.744;2022-09-03T00:53:03;3.55;;;1.27;;
38693;SDS011;24447;43.460;25.744;2022-09-03T01:01:20;1.98;;;1.42;;
38693;SDS011;24447;43.460;25.744;2022-09-03T01:07:04;3.63;;;1.13;;
38693;SDS011;24447;43.460;25.744;2022-09-03T01:18:07;2.15;;;1.40;;
38693;SDS011;24447;43.460;25.744;2022-09-03T01:34:34;2.22;;;1.30;;
38693;SDS011;24447;43.460;25.744;2022-09-03T01:40:18;2.78;;;1.27;;
38693;SDS011;24447;43.460;25.744;2022-09-03T01:42:58;5.03;;;1.50;;
38693;SDS011;24447;43.460;25.744;2022-09-03T01:45:53;1.98;;;1.60;;
38693;SDS011;24447;43.460;25.744;2022-09-03T01:51:45;2.20;;;1.85;;
38693;SDS011;24447;43.460;25.744;2022-09-03T01:59:25;2.22;;;1.58;;
38693;SDS011;24447;43.460;25.744;2022-09-03T02:02:14;5.05;;;2.05;;
38693;SDS011;24447;43.460;25.744;2022-09-03T02:10:13;4.97;;;1.92;;
38693;SDS011;24447;43.460;25.744;2022-09-03T02:12:43;2.10;;;1.65;;
38693;SDS011;24447;43.460;25.744;2022-09-03T02:15:13;2.28;;;1.77;;
38693;SDS011;24447;43.460;25.744;2022-09-03T02:17:41;5.32;;;1.98;;
38693;SDS011;24447;43.460;25.744;2022-09-03T02:20:09;1.15;;;1.15;;
38693;SDS011;24447;43.460;25.744;2022-09-03T02:22:37;1.40;;;1.30;;
38693;SDS011;24447;43.460;25.744;2022-09-03T02:25:05;4.47;;;1.55;;
38693;SDS011;24447;43.460;25.744;2022-09-03T02:27:32;3.05;;;1.40;;
38693;SDS011;24447;43.460;25.744;2022-09-03T02:29:58;3.22;;;1.60;;
38693;SDS011;24447;43.460;25.744;2022-09-03T02:32:24;2.58;;;1.33;;
38693;SDS011;24447;43.460;25.744;2022-09-03T02:34:50;3.65;;;1.40;;
38693;SDS011;24447;43.460;25.744;2022-09-03T02:37:17;2.65;;;1.40;;
38693;SDS011;24447;43.460;25.744;2022-09-03T02:39:44;3.25;;;1.38;;
38693;SDS011;24447;43.460;25.744;2022-09-03T02:42:11;3.50;;;1.65;;
38693;SDS011;24447;43.460;25.744;2022-09-03T02:44:40;5.35;;;1.45;;
38693;SDS011;24447;43.460;25.744;2022-09-03T02:47:09;3.17;;;1.75;;
38693;SDS011;24447;43.460;25.744;2022-09-03T02:49:35;5.28;;;2.25;;
38693;SDS011;24447;43.460;25.744;2022-09-03T02:52:02;4.57;;;2.22;;
38693;SDS011;24447;43.460;25.744;2022-09-03T02:54:31;5.03;;;2.80;;
38693;SDS011;24447;43.460;25.744;2022-09-03T02:57:00;7.95;;;2.90;;
38693;SDS011;24447;43.460;25.744;2022-09-03T02:59:26;4.90;;;2.05;;
38693;SDS011;24447;43.460;25.744;2022-09-03T03:01:55;7.95;;;2.33;;
38693;SDS011;24447;43.460;25.744;2022-09-03T03:04:24;3.35;;;2.53;;
38693;SDS011;24447;43.460;25.744;2022-09-03T03:06:50;6.05;;;2.38;;
38693;SDS011;24447;43.460;25.744;2022-09-03T03:09:16;3.38;;;2.42;;
38693;SDS011;24447;43.460;25.744;2022-09-03T03:11:43;4.68;;;2.42;;
38693;SDS011;24447;43.460;25.744;2022-09-03T03:14:09;5.68;;;2.47;;
38693;SDS011;24447;43.460;25.744;2022-09-03T03:16:35;4.55;;;2.70;;
38693;SDS011;24447;43.460;25.744;2022-09-03T03:19:01;6.10;;;2.33;;
38693;SDS011;24447;43.460;25.744;2022-09-03T03:21:27;4.97;;;2.60;;
38693;SDS011;24447;43.460;25.744;2022-09-03T03:23:53;3.58;;;2.53;;
38693;SDS011;24447;43.460;25.744;2022-09-03T03:26:20;4.13;;;3.05;;
38693;SDS011;24447;43.460;25.744;2022-09-03T03:28:47;7.93;;;3.08;;
38693;SDS011;24447;43.460;25.744;2022-09-03T03:31:15;10.07;;;3.10;;
38693;SDS011;24447;43.460;25.744;2022-09-03T03:33:42;6.00;;;3.13;;
38693;SDS011;24447;43.460;25.744;2022-09-03T03:36:09;3.90;;;3.03;;
38693;SDS011;24447;43.460;25.744;2022-09-03T03:41:09;2.88;;;2.55;;
38693;SDS011;24447;43.460;25.744;2022-09-03T03:43:54;7.70;;;2.85;;
38693;SDS011;24447;43.460;25.744;2022-09-03T03:46:22;7.55;;;3.35;;
38693;SDS011;24447;43.460;25.744;2022-09-03T03:48:50;8.35;;;3.70;;
38693;SDS011;24447;43.460;25.744;2022-09-03T03:51:16;8.82;;;3.88;;
38693;SDS011;24447;43.460;25.744;2022-09-03T03:53:43;6.60;;;3.20;;
38693;SDS011;24447;43.460;25.744;2022-09-03T03:56:10;6.57;;;3.45;;
38693;SDS011;24447;43.460;25.744;2022-09-03T03:58:38;9.80;;;4.00;;
38693;SDS011;24447;43.460;25.744;2022-09-03T04:01:12;4.77;;;3.43;;
38693;SDS011;24447;43.460;25.744;2022-09-03T04:03:40;9.30;;;3.83;;
38693;SDS011;24447;43.460;25.744;2022-09-03T04:06:06;6.25;;;4.05;;
38693;SDS011;24447;43.460;25.744;2022-09-03T04:08:34;8.07;;;4.38;;
38693;SDS011;24447;43.460;25.744;2022-09-03T04:11:01;8.23;;;4.47;;
38693;SDS011;24447;43.460;25.744;2022-09-03T04:13:30;7.32;;;4.20;;
38693;SDS011;24447;43.460;25.744;2022-09-03T04:16:03;8.50;;;4.43;;
38693;SDS011;24447;43.460;25.744;2022-09-03T04:18:34;9.68;;;4.70;;
38693;SDS011;24447;43.460;25.744;2022-09-03T04:21:01;8.95;;;4.88;;
38693;SDS011;24447;43.460;25.744;2022-09-03T04:23:28;8.20;;;4.60;;
38693;SDS011;24447;43.460;25.744;2022-09-03T04:25:58;13.65;;;5.60;;
38693;SDS011;24447;43.460;25.744;2022-09-03T04:28:24;10.32;;;4.70;;
38693;SDS011;24447;43.460;25.744;2022-09-03T04:30:50;10.85;;;4.93;;
38693;SDS011;24447;43.460;25.744;2022-09-03T04:33:16;8.40;;;4.93;;
38693;SDS011;24447;43.460;25.744;2022-09-03T04:35:42;9.02;;;4.80;;
38693;SDS011;24447;43.460;25.744;2022-09-03T04:38:08;9.13;;;5.40;;
38693;SDS011;24447;43.460;25.744;2022-09-03T04:40:34;8.98;;;4.82;;
38693;SDS011;24447;43.460;25.744;2022-09-03T04:43:00;13.20;;;5.75;;
38693;SDS011;24447;43.460;25.744;2022-09-03T04:45:26;9.68;;;5.55;;
38693;SDS011;24447;43.460;25.744;2022-09-03T04:47:59;11.93;;;5.85;;
38693;SDS011;24447;43.460;25.744;2022-09-03T04:50:27;16.75;;;5.78;;
38693;SDS011;24447;43.460;25.744;2022-09-03T04:52:54;13.13;;;7.07;;
38693;SDS011;24447;43.460;25.744;2022-09-03T04:55:22;12.70;;;6.85;;
38693;SDS011;24447;43.460;25.744;2022-09-03T04:57:47;14.48;;;6.63;;
38693;SDS011;24447;43.460;25.744;2022-09-03T05:00:13;11.18;;;5.75;;
38693;SDS011;24447;43.460;25.744;2022-09-03T05:02:42;13.55;;;7.45;;
38693;SDS011;24447;43.460;25.744;2022-09-03T05:05:13;10.35;;;5.95;;
38693;SDS011;24447;43.460;25.744;2022-09-03T05:07:39;9.82;;;5.40;;
38693;SDS011;24447;43.460;25.744;2022-09-03T05:10:06;7.68;;;5.00;;
38693;SDS011;24447;43.460;25.744;2022-09-03T05:12:34;9.63;;;4.93;;
38693;SDS011;24447;43.460;25.744;2022-09-03T05:15:01;8.88;;;5.20;;
38693;SDS011;24447;43.460;25.744;2022-09-03T05:17:29;13.05;;;5.97;;
38693;SDS011;24447;43.460;25.744;2022-09-03T05:19:55;9.38;;;5.40;;
38693;SDS011;24447;43.460;25.744;2022-09-03T05:22:21;5.82;;;3.85;;
38693;SDS011;24447;43.460;25.744;2022-09-03T05:24:47;7.28;;;3.55;;
38693;SDS011;24447;43.460;25.744;2022-09-03T05:27:14;7.50;;;3.60;;
38693;SDS011;24447;43.460;25.744;2022-09-03T05:29:43;11.70;;;4.78;;
38693;SDS011;24447;43.460;25.744;2022-09-03T05:32:09;6.05;;;4.28;;
38693;SDS011;24447;43.460;25.744;2022-09-03T05:34:37;9.48;;;4.18;;
38693;SDS011;24447;43.460;25.744;2022-09-03T05:37:03;6.50;;;4.10;;
38693;SDS011;24447;43.460;25.744;2022-09-03T05:39:29;8.43;;;4.25;;
38693;SDS011;24447;43.460;25.744;2022-09-03T05:41:55;9.52;;;4.35;;
38693;SDS011;24447;43.460;25.744;2022-09-03T05:44:21;6.50;;;3.72;;
38693;SDS011;24447;43.460;25.744;2022-09-03T05:46:48;6.32;;;4.10;;
38693;SDS011;24447;43.460;25.744;2022-09-03T05:49:15;6.78;;;3.63;;
38693;SDS011;24447;43.460;25.744;2022-09-03T05:51:42;4.85;;;3.55;;
38693;SDS011;24447;43.460;25.744;2022-09-03T05:54:08;8.20;;;3.60;;
38693;SDS011;24447;43.460;25.744;2022-09-03T05:56:35;6.25;;;3.47;;
38693;SDS011;24447;43.460;25.744;2022-09-03T05:59:05;10.10;;;3.53;;
38693;SDS011;24447;43.460;25.744;2022-09-03T06:01:40;6.68;;;3.33;;
38693;SDS011;24447;43.460;25.744;2022-09-03T06:04:09;7.75;;;3.65;;
38693;SDS011;24447;43.460;25.744;2022-09-03T06:06:37;4.15;;;3.63;;
38693;SDS011;24447;43.460;25.744;2022-09-03T06:09:09;13.25;;;3.95;;
38693;SDS011;24447;43.460;25.744;2022-09-03T06:11:40;9.00;;;4.68;;
38693;SDS011;24447;43.460;25.744;2022-09-03T06:14:07;8.75;;;4.10;;
38693;SDS011;24447;43.460;25.744;2022-09-03T06:16:35;6.43;;;4.10;;
38693;SDS011;24447;43.460;25.744;2022-09-03T06:19:03;8.73;;;4.68;;
38693;SDS011;24447;43.460;25.744;2022-09-03T06:23:59;9.98;;;4.30;;
38693;SDS011;24447;43.460;25.744;2022-09-03T06:26:26;9.35;;;4.25;;
38693;SDS011;24447;43.460;25.744;2022-09-03T06:28:52;7.50;;;4.13;;
38693;SDS011;24447;43.460;25.744;2022-09-03T06:31:19;11.68;;;4.82;;
38693;SDS011;24447;43.460;25.744;2022-09-03T06:33:45;8.18;;;4.63;;
38693;SDS011;24447;43.460;25.744;2022-09-03T06:36:13;10.55;;;4.60;;
38693;SDS011;24447;43.460;25.744;2022-09-03T06:38:42;11.50;;;4.60;;
38693;SDS011;24447;43.460;25.744;2022-09-03T06:41:16;10.05;;;4.40;;
38693;SDS011;24447;43.460;25.744;2022-09-03T06:43:49;14.50;;;4.75;;
38693;SDS011;24447;43.460;25.744;2022-09-03T06:46:17;8.32;;;5.20;;
38693;SDS011;24447;43.460;25.744;2022-09-03T06:48:45;12.65;;;4.65;;
38693;SDS011;24447;43.460;25.744;2022-09-03T06:51:13;10.48;;;5.93;;
38693;SDS011;24447;43.460;25.744;2022-09-03T06:53:45;12.50;;;6.38;;
38693;SDS011;24447;43.460;25.744;2022-09-03T06:58:42;13.45;;;5.90;;
38693;SDS011;24447;43.460;25.744;2022-09-03T07:01:11;17.45;;;6.85;;
38693;SDS011;24447;43.460;25.744;2022-09-03T07:03:50;14.10;;;6.78;;
38693;SDS011;24447;43.460;25.744;2022-09-03T07:06:20;13.48;;;6.68;;
38693;SDS011;24447;43.460;25.744;2022-09-03T07:08:46;14.40;;;6.50;;
38693;SDS011;24447;43.460;25.744;2022-09-03T07:11:13;12.93;;;6.03;;
38693;SDS011;24447;43.460;25.744;2022-09-03T07:13:42;16.30;;;7.15;;
38693;SDS011;24447;43.460;25.744;2022-09-03T07:16:14;10.82;;;6.57;;
38693;SDS011;24447;43.460;25.744;2022-09-03T07:18:41;13.05;;;6.35;;
38693;SDS011;24447;43.460;25.744;2022-09-03T07:21:11;12.02;;;5.88;;
38693;SDS011;24447;43.460;25.744;2022-09-03T07:23:39;13.02;;;5.72;;
38693;SDS011;24447;43.460;25.744;2022-09-03T07:26:09;10.30;;;5.05;;
38693;SDS011;24447;43.460;25.744;2022-09-03T07:28:46;11.05;;;5.13;;
38693;SDS011;24447;43.460;25.744;2022-09-03T07:31:17;10.80;;;5.10;;
38693;SDS011;24447;43.460;25.744;2022-09-03T07:33:45;15.63;;;6.13;;
38693;SDS011;24447;43.460;25.744;2022-09-03T07:36:14;12.77;;;6.80;;
38693;SDS011;24447;43.460;25.744;2022-09-03T07:38:41;12.95;;;5.75;;
38693;SDS011;24447;43.460;25.744;2022-09-03T07:41:09;11.65;;;5.75;;
38693;SDS011;24447;43.460;25.744;2022-09-03T07:43:36;12.02;;;5.18;;
38693;SDS011;24447;43.460;25.744;2022-09-03T07:46:04;12.90;;;5.85;;
38693;SDS011;24447;43.460;25.744;2022-09-03T07:48:32;12.10;;;6.53;;
38693;SDS011;24447;43.460;25.744;2022-09-03T07:50:58;13.32;;;6.10;;
38693;SDS011;24447;43.460;25.744;2022-09-03T07:53:25;13.95;;;6.47;;
38693;SDS011;24447;43.460;25.744;2022-09-03T07:55:52;12.13;;;6.20;;
38693;SDS011;24447;43.460;25.744;2022-09-03T07:58:20;14.32;;;5.85;;
38693;SDS011;24447;43.460;25.744;2022-09-03T08:00:48;11.73;;;5.20;;
38693;SDS011;24447;43.460;25.744;2022-09-03T08:03:14;13.48;;;6.03;;
38693;SDS011;24447;43.460;25.744;2022-09-03T08:05:40;10.60;;;5.47;;
38693;SDS011;24447;43.460;25.744;2022-09-03T08:08:06;10.32;;;5.70;;
38693;SDS011;24447;43.460;25.744;2022-09-03T08:10:36;14.90;;;6.35;;
38693;SDS011;24447;43.460;25.744;2022-09-03T08:13:02;11.00;;;6.13;;
38693;SDS011;24447;43.460;25.744;2022-09-03T08:15:32;16.17;;;6.88;;
38693;SDS011;24447;43.460;25.744;2022-09-03T08:17:59;16.15;;;6.32;;
38693;SDS011;24447;43.460;25.744;2022-09-03T08:20:26;14.30;;;7.00;;
38693;SDS011;24447;43.460;25.744;2022-09-03T08:22:52;14.98;;;6.82;;
38693;SDS011;24447;43.460;25.744;2022-09-03T08:25:18;13.32;;;6.07;;
38693;SDS011;24447;43.460;25.744;2022-09-03T08:27:44;15.73;;;6.20;;
38693;SDS011;24447;43.460;25.744;2022-09-03T08:30:10;12.45;;;6.20;;
38693;SDS011;24447;43.460;25.744;2022-09-03T08:32:37;16.42;;;6.38;;
38693;SDS011;24447;43.460;25.744;2022-09-03T08:35:04;14.35;;;6.63;;
38693;SDS011;24447;43.460;25.744;2022-09-03T08:37:33;12.50;;;6.63;;
38693;SDS011;24447;43.460;25.744;2022-09-03T08:39:59;17.52;;;7.80;;
38693;SDS011;24447;43.460;25.744;2022-09-03T08:42:30;14.95;;;6.82;;
38693;SDS011;24447;43.460;25.744;2022-09-03T08:45:04;16.65;;;8.15;;
38693;SDS011;24447;43.460;25.744;2022-09-03T08:47:45;15.18;;;6.80;;
38693;SDS011;24447;43.460;25.744;2022-09-03T08:50:23;17.33;;;7.95;;
38693;SDS011;24447;43.460;25.744;2022-09-03T08:53:12;14.27;;;7.05;;
38693;SDS011;24447;43.460;25.744;2022-09-03T08:56:07;16.15;;;8.05;;
38693;SDS011;24447;43.460;25.744;2022-09-03T08:58:35;14.40;;;7.18;;
38693;SDS011;24447;43.460;25.744;2022-09-03T09:08:47;16.75;;;8.30;;
38693;SDS011;24447;43.460;25.744;2022-09-03T09:13:57;15.63;;;7.90;;
38693;SDS011;24447;43.460;25.744;2022-09-03T09:19:40;17.58;;;8.85;;
38693;SDS011;24447;43.460;25.744;2022-09-03T09:22:09;18.35;;;7.70;;
38693;SDS011;24447;43.460;25.744;2022-09-03T09:24:39;17.23;;;7.75;;
38693;SDS011;24447;43.460;25.744;2022-09-03T09:27:07;16.33;;;8.00;;
38693;SDS011;24447;43.460;25.744;2022-09-03T09:29:37;20.73;;;7.90;;
38693;SDS011;24447;43.460;25.744;2022-09-03T09:32:03;16.88;;;8.55;;
38693;SDS011;24447;43.460;25.744;2022-09-03T09:34:34;16.35;;;7.97;;
38693;SDS011;24447;43.460;25.744;2022-09-03T09:37:09;14.90;;;7.22;;
38693;SDS011;24447;43.460;25.744;2022-09-03T09:39:37;15.48;;;7.75;;
38693;SDS011;24447;43.460;25.744;2022-09-03T09:42:08;17.17;;;8.13;;
38693;SDS011;24447;43.460;25.744;2022-09-03T09:44:39;18.65;;;8.55;;
38693;SDS011;24447;43.460;25.744;2022-09-03T09:47:11;20.77;;;8.40;;
38693;SDS011;24447;43.460;25.744;2022-09-03T09:52:11;19.00;;;8.82;;
38693;SDS011;24447;43.460;25.744;2022-09-03T09:54:39;20.92;;;9.38;;
38693;SDS011;24447;43.460;25.744;2022-09-03T09:57:12;16.50;;;7.80;;
38693;SDS011;24447;43.460;25.744;2022-09-03T09:59:43;16.95;;;8.32;;
38693;SDS011;24447;43.460;25.744;2022-09-03T10:02:11;18.25;;;8.55;;
38693;SDS011;24447;43.460;25.744;2022-09-03T10:04:40;19.02;;;8.50;;
38693;SDS011;24447;43.460;25.744;2022-09-03T10:10:07;17.15;;;8.32;;
38693;SDS011;24447;43.460;25.744;2022-09-03T10:12:41;20.45;;;9.02;;
38693;SDS011;24447;43.460;25.744;2022-09-03T10:17:59;20.27;;;8.88;;
38693;SDS011;24447;43.460;25.744;2022-09-03T10:20:48;20.00;;;8.38;;
38693;SDS011;24447;43.460;25.744;2022-09-03T10:28:31;18.92;;;8.73;;
38693;SDS011;24447;43.460;25.744;2022-09-03T10:33:43;18.73;;;8.68;;
38693;SDS011;24447;43.460;25.744;2022-09-03T10:39:01;23.73;;;9.52;;
38693;SDS011;24447;43.460;25.744;2022-09-03T10:41:39;22.05;;;8.55;;
38693;SDS011;24447;43.460;25.744;2022-09-03T10:44:13;17.08;;;8.20;;
38693;SDS011;24447;43.460;25.744;2022-09-03T10:49:47;17.55;;;8.88;;
38693;SDS011;24447;43.460;25.744;2022-09-03T10:57:35;19.73;;;8.95;;
38693;SDS011;24447;43.460;25.744;2022-09-03T11:00:28;19.92;;;9.18;;
38693;SDS011;24447;43.460;25.744;2022-09-03T11:03:17;18.58;;;7.93;;
38693;SDS011;24447;43.460;25.744;2022-09-03T11:13:39;20.00;;;8.95;;
38693;SDS011;24447;43.460;25.744;2022-09-03T11:21:08;20.98;;;8.50;;
38693;SDS011;24447;43.460;25.744;2022-09-03T11:23:39;17.77;;;8.48;;
38693;SDS011;24447;43.460;25.744;2022-09-03T11:33:45;17.92;;;8.10;;
38693;SDS011;24447;43.460;25.744;2022-09-03T11:36:16;15.00;;;8.05;;
38693;SDS011;24447;43.460;25.744;2022-09-03T11:38:49;19.60;;;8.05;;
38693;SDS011;24447;43.460;25.744;2022-09-03T11:43:47;18.15;;;8.70;;
38693;SDS011;24447;43.460;25.744;2022-09-03T11:48:49;21.30;;;9.52;;
38693;SDS011;24447;43.460;25.744;2022-09-03T11:51:33;19.42;;;8.40;;
38693;SDS011;24447;43.460;25.744;2022-09-03T11:54:05;20.17;;;8.23;;
38693;SDS011;24447;43.460;25.744;2022-09-03T11:59:43;18.52;;;8.13;;
38693;SDS011;24447;43.460;25.744;2022-09-03T12:13:15;16.48;;;7.55;;
38693;SDS011;24447;43.460;25.744;2022-09-03T12:18:34;17.35;;;7.68;;
38693;SDS011;24447;43.460;25.744;2022-09-03T12:21:02;15.95;;;7.75;;
38693;SDS011;24447;43.460;25.744;2022-09-03T12:23:41;17.77;;;8.07;;
38693;SDS011;24447;43.460;25.744;2022-09-03T12:26:17;18.33;;;7.30;;
38693;SDS011;24447;43.460;25.744;2022-09-03T12:28:58;18.17;;;8.50;;
38693;SDS011;24447;43.460;25.744;2022-09-03T12:34:14;17.60;;;7.45;;
38693;SDS011;24447;43.460;25.744;2022-09-03T12:36:42;17.50;;;7.60;;
38693;SDS011;24447;43.460;25.744;2022-09-03T12:39:14;20.33;;;7.05;;
38693;SDS011;24447;43.460;25.744;2022-09-03T12:44:26;19.38;;;7.10;;
38693;SDS011;24447;43.460;25.744;2022-09-03T12:47:05;14.63;;;6.07;;
38693;SDS011;24447;43.460;25.744;2022-09-03T12:49:38;17.50;;;6.97;;
38693;SDS011;24447;43.460;25.744;2022-09-03T12:52:28;17.75;;;7.32;;
38693;SDS011;24447;43.460;25.744;2022-09-03T12:55:04;18.30;;;8.20;;
38693;SDS011;24447;43.460;25.744;2022-09-03T12:57:43;17.00;;;6.97;;
38693;SDS011;24447;43.460;25.744;2022-09-03T13:00:15;16.95;;;6.47;;
38693;SDS011;24447;43.460;25.744;2022-09-03T13:05:20;20.08;;;7.35;;
38693;SDS011;24447;43.460;25.744;2022-09-03T13:07:54;20.05;;;6.65;;
38693;SDS011;24447;43.460;25.744;2022-09-03T13:10:32;15.55;;;6.72;;
38693;SDS011;24447;43.460;25.744;2022-09-03T13:13:08;19.67;;;7.38;;
38693;SDS011;24447;43.460;25.744;2022-09-03T13:18:59;16.63;;;6.53;;
38693;SDS011;24447;43.460;25.744;2022-09-03T13:21:39;16.25;;;5.93;;
38693;SDS011;24447;43.460;25.744;2022-09-03T13:25:21;13.98;;;6.38;;
38693;SDS011;24447;43.460;25.744;2022-09-03T13:30:10;13.35;;;6.25;;
38693;SDS011;24447;43.460;25.744;2022-09-03T13:35:39;16.90;;;7.18;;
38693;SDS011;24447;43.460;25.744;2022-09-03T13:38:19;15.80;;;6.13;;
38693;SDS011;24447;43.460;25.744;2022-09-03T13:41:09;13.50;;;5.75;;
38693;SDS011;24447;43.460;25.744;2022-09-03T13:46:29;14.15;;;5.85;;
38693;SDS011;24447;43.460;25.744;2022-09-03T13:49:08;14.05;;;5.93;;
38693;SDS011;24447;43.460;25.744;2022-09-03T13:51:57;13.15;;;5.68;;
38693;SDS011;24447;43.460;25.744;2022-09-03T13:54:40;13.35;;;5.70;;
38693;SDS011;24447;43.460;25.744;2022-09-03T13:57:54;15.27;;;5.70;;
38693;SDS011;24447;43.460;25.744;2022-09-03T14:00:04;15.60;;;6.07;;
38693;SDS011;24447;43.460;25.744;2022-09-03T14:08:20;14.60;;;5.32;;
38693;SDS011;24447;43.460;25.744;2022-09-03T14:11:22;10.90;;;4.85;;
38693;SDS011;24447;43.460;25.744;2022-09-03T14:19:31;13.77;;;5.30;;
38693;SDS011;24447;43.460;25.744;2022-09-03T14:22:06;13.43;;;5.57;;
38693;SDS011;24447;43.460;25.744;2022-09-03T14:24:46;11.57;;;5.50;;
38693;SDS011;24447;43.460;25.744;2022-09-03T14:27:33;13.60;;;5.20;;
38693;SDS011;24447;43.460;25.744;2022-09-03T14:30:00;15.68;;;5.85;;
38693;SDS011;24447;43.460;25.744;2022-09-03T14:41:02;17.65;;;5.82;;
38693;SDS011;24447;43.460;25.744;2022-09-03T14:52:13;13.82;;;5.95;;
38693;SDS011;24447;43.460;25.744;2022-09-03T14:54:55;12.63;;;5.55;;
38693;SDS011;24447;43.460;25.744;2022-09-03T14:58:10;13.27;;;6.05;;
38693;SDS011;24447;43.460;25.744;2022-09-03T15:01:09;15.02;;;6.03;;
38693;SDS011;24447;43.460;25.744;2022-09-03T15:11:29;12.43;;;5.03;;
38693;SDS011;24447;43.460;25.744;2022-09-03T15:17:06;13.95;;;5.90;;
38693;SDS011;24447;43.460;25.744;2022-09-03T15:25:21;12.40;;;5.10;;
38693;SDS011;24447;43.460;25.744;2022-09-03T15:30:43;10.15;;;5.70;;
38693;SDS011;24447;43.460;25.744;2022-09-03T15:40:56;10.45;;;5.43;;
38693;SDS011;24447;43.460;25.744;2022-09-03T15:45:58;14.45;;;6.15;;
38693;SDS011;24447;43.460;25.744;2022-09-03T15:56:35;11.52;;;5.72;;
38693;SDS011;24447;43.460;25.744;2022-09-03T16:02:15;12.07;;;5.65;;
38693;SDS011;24447;43.460;25.744;2022-09-03T16:10:18;9.98;;;5.18;;
38693;SDS011;24447;43.460;25.744;2022-09-03T16:15:50;12.82;;;6.38;;
38693;SDS011;24447;43.460;25.744;2022-09-03T16:23:42;13.40;;;5.57;;
38693;SDS011;24447;43.460;25.744;2022-09-03T16:26:19;12.63;;;5.70;;
38693;SDS011;24447;43.460;25.744;2022-09-03T16:28:52;11.52;;;5.55;;
38693;SDS011;24447;43.460;25.744;2022-09-03T16:39:43;11.60;;;5.63;;
38693;SDS011;24447;43.460;25.744;2022-09-03T16:42:18;18.00;;;5.90;;
38693;SDS011;24447;43.460;25.744;2022-09-03T16:44:53;11.50;;;5.53;;
38693;SDS011;24447;43.460;25.744;2022-09-03T16:50:54;13.15;;;5.35;;
38693;SDS011;24447;43.460;25.744;2022-09-03T17:05:19;11.73;;;5.43;;
38693;SDS011;24447;43.460;25.744;2022-09-03T17:10:45;11.70;;;5.25;;
38693;SDS011;24447;43.460;25.744;2022-09-03T17:21:11;15.10;;;5.50;;
38693;SDS011;24447;43.460;25.744;2022-09-03T17:35:06;16.15;;;6.43;;
38693;SDS011;24447;43.460;25.744;2022-09-03T17:41:14;10.65;;;4.80;;
38693;SDS011;24447;43.460;25.744;2022-09-03T17:43:36;11.77;;;4.93;;
38693;SDS011;24447;43.460;25.744;2022-09-03T17:48:51;10.25;;;5.38;;
38693;SDS011;24447;43.460;25.744;2022-09-03T17:57:02;14.88;;;8.07;;
38693;SDS011;24447;43.460;25.744;2022-09-03T18:02:23;15.20;;;7.82;;
38693;SDS011;24447;43.460;25.744;2022-09-03T18:04:56;15.23;;;7.93;;
38693;SDS011;24447;43.460;25.744;2022-09-03T18:10:03;19.45;;;9.52;;
38693;SDS011;24447;43.460;25.744;2022-09-03T18:13:02;16.67;;;9.43;;
38693;SDS011;24447;43.460;25.744;2022-09-03T18:15:35;19.98;;;10.18;;
38693;SDS011;24447;43.460;25.744;2022-09-03T18:20:59;18.25;;;9.90;;
38693;SDS011;24447;43.460;25.744;2022-09-03T18:26:58;21.38;;;8.80;;
38693;SDS011;24447;43.460;25.744;2022-09-03T18:29:45;19.45;;;8.65;;
38693;SDS011;24447;43.460;25.744;2022-09-03T18:32:32;16.83;;;8.18;;
38693;SDS011;24447;43.460;25.744;2022-09-03T18:35:16;20.77;;;9.32;;
38693;SDS011;24447;43.460;25.744;2022-09-03T18:38:02;17.67;;;8.95;;
38693;SDS011;24447;43.460;25.744;2022-09-03T18:51:05;17.52;;;8.27;;
38693;SDS011;24447;43.460;25.744;2022-09-03T18:56:49;19.20;;;10.15;;
38693;SDS011;24447;43.460;25.744;2022-09-03T19:08:29;18.13;;;8.63;;
38693;SDS011;24447;43.460;25.744;2022-09-03T19:24:17;20.85;;;8.73;;
38693;SDS011;24447;43.460;25.744;2022-09-03T19:30:05;15.00;;;8.57;;
38693;SDS011;24447;43.460;25.744;2022-09-03T19:41:49;19.98;;;8.60;;
38693;SDS011;24447;43.460;25.744;2022-09-03T19:44:58;21.75;;;8.30;;
38693;SDS011;24447;43.460;25.744;2022-09-03T19:51:01;21.38;;;8.88;;
38693;SDS011;24447;43.460;25.744;2022-09-03T19:54:07;19.02;;;8.98;;
38693;SDS011;24447;43.460;25.744;2022-09-03T19:56:55;20.05;;;8.23;;
38693;SDS011;24447;43.460;25.744;2022-09-03T19:59:41;18.95;;;9.38;;
38693;SDS011;24447;43.460;25.744;2022-09-03T20:02:28;20.38;;;8.98;;
38693;SDS011;24447;43.460;25.744;2022-09-03T20:05:15;17.95;;;7.72;;
38693;SDS011;24447;43.460;25.744;2022-09-03T20:08:02;22.80;;;9.27;;
38693;SDS011;24447;43.460;25.744;2022-09-03T20:10:48;19.50;;;9.43;;
38693;SDS011;24447;43.460;25.744;2022-09-03T20:13:17;23.00;;;8.85;;
38693;SDS011;24447;43.460;25.744;2022-09-03T20:26:18;16.10;;;9.05;;
38693;SDS011;24447;43.460;25.744;2022-09-03T20:40:08;20.70;;;9.10;;
38693;SDS011;24447;43.460;25.744;2022-09-03T20:45:36;20.55;;;9.23;;
38693;SDS011;24447;43.460;25.744;2022-09-03T20:51:26;19.80;;;9.70;;
38693;SDS011;24447;43.460;25.744;2022-09-03T20:54:21;19.77;;;10.10;;
38693;SDS011;24447;43.460;25.744;2022-09-03T21:09:57;16.85;;;8.18;;
38693;SDS011;24447;43.460;25.744;2022-09-03T21:26:47;19.35;;;9.43;;
38693;SDS011;24447;43.460;25.744;2022-09-03T21:29:33;21.90;;;8.48;;
38693;SDS011;24447;43.460;25.744;2022-09-03T21:32:13;19.90;;;8.63;;
38693;SDS011;24447;43.460;25.744;2022-09-03T21:34:43;18.48;;;7.85;;
38693;SDS011;24447;43.460;25.744;2022-09-03T21:37:18;18.65;;;8.68;;
38693;SDS011;24447;43.460;25.744;2022-09-03T21:39:52;16.63;;;8.27;;
38693;SDS011;24447;43.460;25.744;2022-09-03T21:47:32;20.58;;;8.02;;
38693;SDS011;24447;43.460;25.744;2022-09-03T21:52:43;20.05;;;8.10;;
38693;SDS011;24447;43.460;25.744;2022-09-03T22:01:13;23.27;;;8.50;;
38693;SDS011;24447;43.460;25.744;2022-09-03T22:03:44;30.27;;;10.40;;
38693;SDS011;24447;43.460;25.744;2022-09-03T22:06:18;19.88;;;8.85;;
38693;SDS011;24447;43.460;25.744;2022-09-03T22:08:49;21.30;;;9.20;;
38693;SDS011;24447;43.460;25.744;2022-09-03T22:11:32;23.92;;;8.70;;
38693;SDS011;24447;43.460;25.744;2022-09-03T22:14:08;21.73;;;8.30;;
38693;SDS011;24447;43.460;25.744;2022-09-03T22:19:35;21.20;;;8.95;;
38693;SDS011;24447;43.460;25.744;2022-09-03T22:22:03;20.02;;;8.88;;
38693;SDS011;24447;43.460;25.744;2022-09-03T22:24:42;19.52;;;9.60;;
38693;SDS011;24447;43.460;25.744;2022-09-03T22:27:28;18.25;;;8.38;;
38693;SDS011;24447;43.460;25.744;2022-09-03T22:30:06;19.90;;;8.70;;
38693;SDS011;24447;43.460;25.744;2022-09-03T22:33:12;17.02;;;8.60;;